PWSweather.com
Personal Weather Stations
Station Observations
TARRYHILL
Tarrytown, NY 10591

Tarrytown, NY 10591

Lat: 41.05185, Lon: -73.85296

Elevation: 341

Station Type: Davis Vantage Vue

Latest ConditionsUpdated 2:40:02 PM EST Tuesday, Dec 6, 2016
Currently Today's Max Today's Min Today's Average
Temperature 42.2°F5.7°C 44.3°F6.8°C 29.8°F-1.2°C 37.4°F3.0°C
Dew Point 29.3°F-1.5°C 33.1°F0.6°C 26.9°F-2.8°C 29.9°F-1.2°C
Winds Calm Calm 2.3 mph N3.7 kmh N - 0.4 mph 0.6 kmh
Wind Gusts 1.2 mph1.9 kmh 4.6 mph7.4 kmh - -
Humidity 60% 91% 59% 75%
Pressure 30.02 in1016.6 mb 30.18 in1022.0 mb 30.02 in1016.6 mb -
Hour Temp Dew Point Humidity Winds Wind Gusts Pressure Precip Precip Rate Daily Precip Total
02:40 PM 42.2°F5.7°C 29.3°F-1.5°C 60% Calm Calm 1.2 mph1.9 kmh 30.02 in1016.6 mb - 0.00 in0.0 mm 0.00 in0.0 mm
02:30 PM 42.4°F5.8°C 29.4°F-1.4°C 60% Calm Calm 2.3 mph3.7 kmh 30.02 in1016.6 mb - 0.00 in0.0 mm 0.00 in0.0 mm
02:20 PM 42.5°F5.8°C 29.2°F-1.6°C 59% 1.2 mph ENE1.9 kmh ENE 2.3 mph3.7 kmh 30.02 in1016.6 mb - 0.00 in0.0 mm 0.00 in0.0 mm
02:10 PM 42.8°F6.0°C 30.3°F-0.9°C 61% 1.2 mph E1.9 kmh E 3.5 mph5.6 kmh 30.02 in1016.6 mb - 0.00 in0.0 mm 0.00 in0.0 mm
02:00 PM 42.9°F6.1°C 30.8°F-0.7°C 62% Calm Calm 1.2 mph1.9 kmh 30.03 in1016.9 mb - 0.00 in0.0 mm 0.00 in0.0 mm
01:50 PM 43.0°F6.1°C 30.5°F-0.8°C 61% 1.2 mph SE1.9 kmh SE 3.5 mph5.6 kmh 30.03 in1016.9 mb - 0.00 in0.0 mm 0.00 in0.0 mm
01:40 PM 43.0°F6.1°C 30.5°F-0.8°C 61% 1.2 mph SE1.9 kmh SE -- 30.04 in1017.3 mb - 0.00 in0.0 mm 0.00 in0.0 mm
01:30 PM 43.4°F6.3°C 31.6°F-0.2°C 63% 1.2 mph NW1.9 kmh NW 2.3 mph3.7 kmh 30.05 in1017.6 mb - 0.00 in0.0 mm 0.00 in0.0 mm
01:20 PM 43.5°F6.4°C 32.1°F0.1°C 64% Calm Calm 1.2 mph1.9 kmh 30.05 in1017.6 mb - 0.00 in0.0 mm 0.00 in0.0 mm
01:10 PM 43.6°F6.4°C 31.4°F-0.3°C 62% 1.2 mph WSW1.9 kmh WSW 2.3 mph3.7 kmh 30.05 in1017.6 mb - 0.00 in0.0 mm 0.00 in0.0 mm
01:00 PM 43.8°F6.6°C 31.7°F-0.2°C 62% 2.3 mph SSE3.7 kmh SSE 2.3 mph3.7 kmh 30.06 in1017.9 mb - 0.00 in0.0 mm 0.00 in0.0 mm
12:50 PM 44.0°F6.7°C 31.8°F-0.1°C 62% Calm Calm 2.3 mph3.7 kmh 30.07 in1018.3 mb - 0.00 in0.0 mm 0.00 in0.0 mm
12:40 PM 44.2°F6.8°C 32.0°F0.0°C 62% Calm Calm -- 30.08 in1018.6 mb - 0.00 in0.0 mm 0.00 in0.0 mm
12:30 PM 44.3°F6.8°C 32.1°F0.1°C 62% Calm Calm -- 30.09 in1019.0 mb - 0.00 in0.0 mm 0.00 in0.0 mm
12:20 PM 44.3°F6.8°C 32.1°F0.1°C 62% 1.2 mph SE1.9 kmh SE 2.3 mph3.7 kmh 30.09 in1019.0 mb - 0.00 in0.0 mm 0.00 in0.0 mm
12:10 PM 44.1°F6.7°C 31.9°F-0.1°C 62% 1.2 mph ESE1.9 kmh ESE 3.5 mph5.6 kmh 30.09 in1019.0 mb - 0.00 in0.0 mm 0.00 in0.0 mm
12:00 PM 43.9°F6.6°C 32.9°F0.5°C 65% Calm Calm 1.2 mph1.9 kmh 30.09 in1019.0 mb - 0.00 in0.0 mm 0.00 in0.0 mm
11:50 AM 43.3°F6.3°C 32.7°F0.4°C 66% 2.3 mph ENE3.7 kmh ENE 3.5 mph5.6 kmh 30.10 in1019.3 mb - 0.00 in0.0 mm 0.00 in0.0 mm
11:40 AM 42.9°F6.1°C 33.1°F0.6°C 68% 1.2 mph NW1.9 kmh NW 1.2 mph1.9 kmh 30.09 in1019.0 mb - 0.00 in0.0 mm 0.00 in0.0 mm
11:30 AM 42.3°F5.7°C 32.8°F0.4°C 69% 1.2 mph NW1.9 kmh NW 2.3 mph3.7 kmh 30.10 in1019.3 mb - 0.00 in0.0 mm 0.00 in0.0 mm
11:20 AM 41.7°F5.4°C 32.9°F0.5°C 71% Calm Calm 1.2 mph1.9 kmh 30.11 in1019.6 mb - 0.00 in0.0 mm 0.00 in0.0 mm
11:10 AM 41.7°F5.4°C 32.6°F0.3°C 70% 2.3 mph NNW3.7 kmh NNW 4.6 mph7.4 kmh 30.12 in1020.0 mb - 0.00 in0.0 mm 0.00 in0.0 mm
11:00 AM 41.3°F5.2°C 32.2°F0.1°C 70% 2.3 mph N3.7 kmh N 4.6 mph7.4 kmh 30.12 in1020.0 mb - 0.00 in0.0 mm 0.00 in0.0 mm
10:50 AM 41.1°F5.1°C 32.1°F0.1°C 70% 1.2 mph NNW1.9 kmh NNW 2.3 mph3.7 kmh 30.13 in1020.3 mb - 0.00 in0.0 mm 0.00 in0.0 mm
10:40 AM 41.0°F5.0°C 32.0°F0.0°C 70% 1.2 mph N1.9 kmh N 3.5 mph5.6 kmh 30.13 in1020.3 mb - 0.00 in0.0 mm 0.00 in0.0 mm
10:30 AM 41.0°F5.0°C 32.3°F0.2°C 71% 1.2 mph NW1.9 kmh NW 2.3 mph3.7 kmh 30.14 in1020.7 mb - 0.00 in0.0 mm 0.00 in0.0 mm
10:20 AM 40.5°F4.7°C 31.5°F-0.3°C 70% 2.3 mph N3.7 kmh N 3.5 mph5.6 kmh 30.15 in1021.0 mb - 0.00 in0.0 mm 0.00 in0.0 mm
10:10 AM 40.4°F4.7°C 32.1°F0.1°C 72% 1.2 mph N1.9 kmh N 4.6 mph7.4 kmh 30.15 in1021.0 mb - 0.00 in0.0 mm 0.00 in0.0 mm
10:00 AM 40.0°F4.4°C 32.4°F0.2°C 74% 1.2 mph N1.9 kmh N 3.5 mph5.6 kmh 30.16 in1021.3 mb - 0.00 in0.0 mm 0.00 in0.0 mm
09:50 AM 39.4°F4.1°C 32.1°F0.1°C 75% 1.2 mph NNW1.9 kmh NNW 2.3 mph3.7 kmh 30.16 in1021.3 mb - 0.00 in0.0 mm 0.00 in0.0 mm
09:40 AM 38.5°F3.6°C 31.9°F-0.1°C 77% Calm Calm 1.2 mph1.9 kmh 30.17 in1021.7 mb - 0.00 in0.0 mm 0.00 in0.0 mm
09:30 AM 38.0°F3.3°C 31.7°F-0.2°C 78% Calm Calm -- 30.18 in1022.0 mb - 0.00 in0.0 mm 0.00 in0.0 mm
09:20 AM 37.3°F2.9°C 31.7°F-0.2°C 80% Calm Calm -- 30.17 in1021.7 mb - 0.00 in0.0 mm 0.00 in0.0 mm
09:10 AM 36.5°F2.5°C 30.9°F-0.6°C 80% Calm Calm -- 30.17 in1021.7 mb - 0.00 in0.0 mm 0.00 in0.0 mm
09:00 AM 36.0°F2.2°C 30.4°F-0.9°C 80% Calm Calm -- 30.16 in1021.3 mb - 0.00 in0.0 mm 0.00 in0.0 mm
08:50 AM 35.8°F2.1°C 30.2°F-1.0°C 80% 1.2 mph NNE1.9 kmh NNE 1.2 mph1.9 kmh 30.16 in1021.3 mb - 0.00 in0.0 mm 0.00 in0.0 mm
08:40 AM 34.7°F1.5°C 30.1°F-1.1°C 83% Calm Calm -- 30.16 in1021.3 mb - 0.00 in0.0 mm 0.00 in0.0 mm
08:30 AM 33.9°F1.1°C 30.1°F-1.1°C 86% Calm Calm -- 30.17 in1021.7 mb - 0.00 in0.0 mm 0.00 in0.0 mm
08:20 AM 33.1°F0.6°C 30.5°F-0.8°C 90% Calm Calm -- 30.16 in1021.3 mb - 0.00 in0.0 mm 0.00 in0.0 mm
08:10 AM 31.5°F-0.3°C 29.1°F-1.6°C 91% Calm Calm -- 30.16 in1021.3 mb - 0.00 in0.0 mm 0.00 in0.0 mm
08:00 AM 30.1°F-1.1°C 27.5°F-2.5°C 90% Calm Calm -- 30.15 in1021.0 mb - 0.00 in0.0 mm 0.00 in0.0 mm
07:50 AM 30.2°F-1.0°C 27.9°F-2.3°C 91% Calm Calm -- 30.15 in1021.0 mb - 0.00 in0.0 mm 0.00 in0.0 mm
07:40 AM 30.1°F-1.1°C 27.2°F-2.7°C 89% Calm Calm -- 30.15 in1021.0 mb - 0.00 in0.0 mm 0.00 in0.0 mm
07:30 AM 30.2°F-1.0°C 27.6°F-2.4°C 90% Calm Calm -- 30.15 in1021.0 mb - 0.00 in0.0 mm 0.00 in0.0 mm
07:20 AM 29.8°F-1.2°C 27.0°F-2.8°C 89% Calm Calm -- 30.15 in1021.0 mb - 0.00 in0.0 mm 0.00 in0.0 mm
07:10 AM 30.2°F-1.0°C 27.3°F-2.6°C 89% Calm Calm -- 30.16 in1021.3 mb - 0.00 in0.0 mm 0.00 in0.0 mm
07:00 AM 30.3°F-0.9°C 27.4°F-2.6°C 89% Calm Calm -- 30.15 in1021.0 mb - 0.00 in0.0 mm 0.00 in0.0 mm
06:50 AM 30.5°F-0.8°C 27.4°F-2.6°C 88% Calm Calm -- 30.15 in1021.0 mb - 0.00 in0.0 mm 0.00 in0.0 mm
06:40 AM 30.9°F-0.6°C 27.8°F-2.3°C 88% Calm Calm -- 30.15 in1021.0 mb - 0.00 in0.0 mm 0.00 in0.0 mm
06:30 AM 31.2°F-0.4°C 28.4°F-2.0°C 89% Calm Calm -- 30.16 in1021.3 mb - 0.00 in0.0 mm 0.00 in0.0 mm
06:20 AM 30.3°F-0.9°C 26.9°F-2.8°C 87% Calm Calm -- 30.16 in1021.3 mb - 0.00 in0.0 mm 0.00 in0.0 mm
06:10 AM 30.9°F-0.6°C 27.0°F-2.8°C 85% Calm Calm -- 30.15 in1021.0 mb - 0.00 in0.0 mm 0.00 in0.0 mm
06:00 AM 32.2°F0.1°C 28.2°F-2.1°C 85% Calm Calm -- 30.15 in1021.0 mb - 0.00 in0.0 mm 0.00 in0.0 mm
05:50 AM 32.7°F0.4°C 29.0°F-1.7°C 86% Calm Calm -- 30.15 in1021.0 mb - 0.00 in0.0 mm 0.00 in0.0 mm
05:40 AM 33.0°F0.6°C 29.2°F-1.6°C 86% Calm Calm -- 30.14 in1020.7 mb - 0.00 in0.0 mm 0.00 in0.0 mm
05:30 AM 31.8°F-0.1°C 28.3°F-2.1°C 87% Calm Calm -- 30.14 in1020.7 mb - 0.00 in0.0 mm 0.00 in0.0 mm
05:20 AM 32.1°F0.1°C 27.5°F-2.5°C 83% Calm Calm -- 30.14 in1020.7 mb - 0.00 in0.0 mm 0.00 in0.0 mm
05:10 AM 33.1°F0.6°C 27.9°F-2.3°C 81% Calm Calm -- 30.14 in1020.7 mb - 0.00 in0.0 mm 0.00 in0.0 mm
05:00 AM 34.0°F1.1°C 28.8°F-1.8°C 81% Calm Calm -- 30.14 in1020.7 mb - 0.00 in0.0 mm 0.00 in0.0 mm
04:50 AM 34.3°F1.3°C 27.9°F-2.3°C 77% Calm Calm -- 30.13 in1020.3 mb - 0.00 in0.0 mm 0.00 in0.0 mm
04:40 AM 36.2°F2.3°C 29.7°F-1.3°C 77% Calm Calm -- 30.13 in1020.3 mb - 0.00 in0.0 mm 0.00 in0.0 mm
04:30 AM 35.6°F2.0°C 29.1°F-1.6°C 77% Calm Calm -- 30.14 in1020.7 mb - 0.00 in0.0 mm 0.00 in0.0 mm
04:20 AM 36.0°F2.2°C 29.2°F-1.6°C 76% Calm Calm -- 30.14 in1020.7 mb - 0.00 in0.0 mm 0.00 in0.0 mm
04:10 AM 36.8°F2.7°C 29.2°F-1.6°C 74% Calm Calm 1.2 mph1.9 kmh 30.14 in1020.7 mb - 0.00 in0.0 mm 0.00 in0.0 mm
04:00 AM 37.1°F2.8°C 29.2°F-1.6°C 73% Calm Calm -- 30.14 in1020.7 mb - 0.00 in0.0 mm 0.00 in0.0 mm
03:50 AM 37.3°F2.9°C 29.1°F-1.6°C 72% Calm Calm 1.2 mph1.9 kmh 30.14 in1020.7 mb - 0.00 in0.0 mm 0.00 in0.0 mm
03:40 AM 37.3°F2.9°C 29.4°F-1.4°C 73% Calm Calm -- 30.14 in1020.7 mb - 0.00 in0.0 mm 0.00 in0.0 mm
03:30 AM 37.3°F2.9°C 29.8°F-1.2°C 74% Calm Calm -- 30.14 in1020.7 mb - 0.00 in0.0 mm 0.00 in0.0 mm
03:20 AM 37.2°F2.9°C 29.0°F-1.7°C 72% Calm Calm -- 30.13 in1020.3 mb - 0.00 in0.0 mm 0.00 in0.0 mm
03:10 AM 37.5°F3.1°C 29.0°F-1.7°C 71% Calm Calm 1.2 mph1.9 kmh 30.13 in1020.3 mb - 0.00 in0.0 mm 0.00 in0.0 mm
03:00 AM 37.8°F3.2°C 29.2°F-1.6°C 71% Calm Calm 1.2 mph1.9 kmh 30.13 in1020.3 mb - 0.00 in0.0 mm 0.00 in0.0 mm
02:50 AM 37.7°F3.2°C 29.1°F-1.6°C 71% Calm Calm -- 30.13 in1020.3 mb - 0.00 in0.0 mm 0.00 in0.0 mm
02:40 AM 37.7°F3.2°C 29.2°F-1.6°C 71% Calm Calm -- 30.13 in1020.3 mb - 0.00 in0.0 mm 0.00 in0.0 mm
02:30 AM 37.8°F3.2°C 28.9°F-1.7°C 70% Calm Calm 1.2 mph1.9 kmh 30.13 in1020.3 mb - 0.00 in0.0 mm 0.00 in0.0 mm
02:20 AM 37.7°F3.2°C 28.8°F-1.8°C 70% Calm Calm -- 30.13 in1020.3 mb - 0.00 in0.0 mm 0.00 in0.0 mm
02:10 AM 37.6°F3.1°C 28.7°F-1.8°C 70% Calm Calm -- 30.13 in1020.3 mb - 0.00 in0.0 mm 0.00 in0.0 mm
02:00 AM 38.0°F3.3°C 29.1°F-1.6°C 70% Calm Calm -- 30.13 in1020.3 mb - 0.00 in0.0 mm 0.00 in0.0 mm
01:50 AM 38.0°F3.3°C 29.4°F-1.4°C 71% Calm Calm 3.5 mph5.6 kmh 30.13 in1020.3 mb - 0.00 in0.0 mm 0.00 in0.0 mm
01:40 AM 37.8°F3.2°C 29.3°F-1.5°C 71% 1.2 mph NE1.9 kmh NE 1.2 mph1.9 kmh 30.13 in1020.3 mb - 0.00 in0.0 mm 0.00 in0.0 mm
01:30 AM 36.9°F2.7°C 29.1°F-1.6°C 73% 1.2 mph N1.9 kmh N 3.5 mph5.6 kmh 30.13 in1020.3 mb - 0.00 in0.0 mm 0.00 in0.0 mm
01:20 AM 35.6°F2.0°C 29.1°F-1.6°C 77% Calm Calm -- 30.13 in1020.3 mb - 0.00 in0.0 mm 0.00 in0.0 mm
01:10 AM 35.6°F2.0°C 28.8°F-1.8°C 76% Calm Calm -- 30.13 in1020.3 mb - 0.00 in0.0 mm 0.00 in0.0 mm
01:00 AM 35.7°F2.1°C 29.2°F-1.6°C 77% Calm Calm 1.2 mph1.9 kmh 30.12 in1020.0 mb - 0.00 in0.0 mm 0.00 in0.0 mm
12:50 AM 35.1°F1.7°C 28.9°F-1.7°C 78% Calm Calm -- 30.12 in1020.0 mb - 0.00 in0.0 mm 0.00 in0.0 mm
12:40 AM 35.5°F1.9°C 28.7°F-1.8°C 76% Calm Calm -- 30.11 in1019.6 mb - 0.00 in0.0 mm 0.00 in0.0 mm
12:30 AM 36.8°F2.7°C 29.3°F-1.5°C 74% Calm Calm -- 30.11 in1019.6 mb - 0.00 in0.0 mm 0.00 in0.0 mm
12:20 AM 37.7°F3.2°C 29.8°F-1.2°C 73% Calm Calm -- 30.12 in1020.0 mb - 0.00 in0.0 mm 0.00 in0.0 mm
12:10 AM 37.5°F3.1°C 30.0°F-1.1°C 74% Calm Calm -- 30.12 in1020.0 mb - 0.00 in0.0 mm 0.00 in0.0 mm
12:00 AM 36.8°F2.7°C 29.9°F-1.2°C 76% Calm Calm -- 30.12 in1020.0 mb - 0.00 in0.0 mm 0.00 in0.0 mm